Time;durP1;ratioP1;P1;durP2;ratioP2;P2;SDS_P1;SDS_P2;PMS_P1;PMS_P2;Temp;Humidity;BMP_temperature;BMP_pressure;BME280_temperature;BME280_humidity;BME280_pressure;Samples;Min_cycle;Max_cycle;Signal;HPM_P1;HPM_P2
2022/05/24 00:02:04;;;;;;;;;;;;;;;16.45;79.03;95434.38;5055416;28;19954;-76
2022/05/24 00:04:30;;;;;;;;;;;;;;;16.44;78.95;95448.66;5054070;28;19970;-76
2022/05/24 00:06:57;;;;;;;;;;;;;;;16.43;79.88;95449.75;5055405;28;19954;-77
2022/05/24 00:09:22;;;;;;;;;;;;;;;16.34;78.80;95443.50;5055456;28;19962;-77
2022/05/24 00:11:48;;;;;;;;;;;;;;;16.29;80.18;95449.59;5037273;28;20009;-78
2022/05/24 00:14:14;;;;;;;;;;;;;;;16.29;80.45;95456.75;5055084;28;19958;-78
2022/05/24 00:16:40;;;;;;;;;;;;;;;16.24;81.33;95449.66;5055099;28;20017;-78
2022/05/24 00:19:06;;;;;;;;;;;;;;;16.19;81.32;95457.63;5054855;28;19945;-79
2022/05/24 00:21:32;;;;;;;;;;;;;;;16.14;82.41;95455.81;5053967;28;19972;-78
2022/05/24 00:23:59;;;;;;;;;;;;;;;16.07;81.38;95460.63;5054045;28;20422;-78
2022/05/24 00:26:30;;;;;;;;;;;;;;;16.03;82.40;95455.09;5055183;28;19965;-78
2022/05/24 00:28:56;;;;;;;;;;;;;;;15.97;82.63;95452.78;5054930;28;19948;-78
2022/05/24 00:31:22;;;;;;;;;;;;;;;15.92;81.79;95452.84;5054876;28;20011;-78
2022/05/24 00:33:48;;;;;;;;;;;;;;;15.90;84.06;95454.97;5054829;28;19964;-78
2022/05/24 00:36:14;;;;;;;;;;;;;;;15.85;84.07;95449.69;5054840;28;20022;-79
2022/05/24 00:38:39;;;;;;;;;;;;;;;15.77;83.79;95451.06;5054879;28;20018;-78
2022/05/24 00:41:22;;;;;;;;;;;;;;;15.73;85.42;95456.13;5054722;28;19997;-78
2022/05/24 00:43:54;;;;;;;;;;;;;;;15.70;84.13;95453.22;5054839;28;19980;-78
2022/05/24 00:46:23;;;;;;;;;;;;;;;15.69;84.81;95441.84;5055125;28;19957;-78
2022/05/24 00:48:55;;;;;;;;;;;;;;;15.66;84.47;95455.59;5054574;28;19952;-78
2022/05/24 00:51:39;;;;;;;;;;;;;;;15.69;84.42;95451.63;5054671;28;19967;-78
2022/05/24 00:54:05;;;;;;;;;;;;;;;15.74;85.04;95454.25;5054330;28;19957;-78
2022/05/24 00:56:34;;;;;;;;;;;;;;;15.72;84.18;95441.31;5054572;28;19974;-78
2022/05/24 00:59:03;;;;;;;;;;;;;;;15.72;84.30;95443.19;5054431;28;19951;-78
2022/05/24 01:01:35;;;;;;;;;;;;;;;15.74;84.41;95435.75;5054886;28;19950;-78
2022/05/24 01:04:01;;;;;;;;;;;;;;;15.71;84.94;95433.66;5054122;28;19953;-78
2022/05/24 01:06:27;;;;;;;;;;;;;;;15.74;84.54;95438.41;5054180;28;19956;-78
2022/05/24 01:08:54;;;;;;;;;;;;;;;15.76;84.25;95428.34;5054540;28;20051;-77
2022/05/24 01:11:22;;;;;;;;;;;;;;;15.75;84.37;95445.28;5054067;28;20474;-78
2022/05/24 01:13:50;;;;;;;;;;;;;;;15.73;83.84;95436.84;5036772;28;19963;-78
2022/05/24 01:16:16;;;;;;;;;;;;;;;15.75;84.59;95434.72;5053209;28;19962;-77
2022/05/24 01:18:43;;;;;;;;;;;;;;;15.73;84.49;95440.28;5054203;28;19972;-78
2022/05/24 01:21:11;;;;;;;;;;;;;;;15.73;84.33;95444.78;5054186;28;19954;-77
2022/05/24 01:23:41;;;;;;;;;;;;;;;15.74;84.12;95443.69;5053921;28;19963;-78
2022/05/24 01:26:12;;;;;;;;;;;;;;;15.76;84.00;95455.56;5054253;28;19959;-77
2022/05/24 01:28:38;;;;;;;;;;;;;;;15.78;83.87;95450.00;5053727;28;19957;-77
2022/05/24 01:31:04;;;;;;;;;;;;;;;15.78;83.71;95442.88;5053965;28;19957;-77
2022/05/24 01:36:16;;;;;;;;;;;;;;;15.75;83.39;95421.50;5053811;28;20317;-78
2022/05/24 01:38:46;;;;;;;;;;;;;;;15.73;83.30;95429.69;5053703;28;19978;-78
2022/05/24 01:41:18;;;;;;;;;;;;;;;15.71;82.96;95412.50;5040161;28;19971;-77
2022/05/24 01:43:47;;;;;;;;;;;;;;;15.68;83.16;95418.34;5053732;28;19963;-77
2022/05/24 01:46:14;;;;;;;;;;;;;;;15.64;83.20;95404.88;5053732;28;19960;-78
2022/05/24 01:48:43;;;;;;;;;;;;;;;15.62;83.02;95410.44;5053461;28;19949;-77
2022/05/24 01:51:11;;;;;;;;;;;;;;;15.61;82.93;95414.16;5053626;28;20411;-77
2022/05/24 01:53:41;;;;;;;;;;;;;;;15.56;83.07;95408.91;5053323;28;19955;-77
2022/05/24 01:56:09;;;;;;;;;;;;;;;15.52;83.29;95420.31;5053747;28;19980;-77
2022/05/24 01:58:36;;;;;;;;;;;;;;;15.50;84.01;95420.56;5053424;28;19974;-77
2022/05/24 02:01:05;;;;;;;;;;;;;;;15.48;83.92;95429.84;5053498;28;19959;-77
2022/05/24 02:03:31;;;;;;;;;;;;;;;15.47;83.93;95428.25;5053383;28;19959;-77
2022/05/24 02:05:58;;;;;;;;;;;;;;;15.46;84.12;95438.03;5053276;28;19951;-77
2022/05/24 02:08:24;;;;;;;;;;;;;;;15.45;84.79;95435.66;5053503;28;19964;-77
2022/05/24 02:10:59;;;;;;;;;;;;;;;15.41;84.12;95436.22;5041926;28;19986;-77
2022/05/24 02:13:31;;;;;;;;;;;;;;;15.40;84.59;95431.19;5053174;28;19964;-77
2022/05/24 02:15:59;;;;;;;;;;;;;;;15.39;84.50;95426.97;5053810;28;19963;-77
2022/05/24 02:18:25;;;;;;;;;;;;;;;15.38;85.00;95414.81;5053484;28;19969;-77
2022/05/24 02:20:51;;;;;;;;;;;;;;;15.39;84.93;95409.28;5053075;28;20398;-77
2022/05/24 02:23:18;;;;;;;;;;;;;;;15.39;84.75;95411.09;5053409;28;20007;-77
2022/05/24 02:25:53;;;;;;;;;;;;;;;15.38;84.53;95414.81;5053283;28;19953;-77
2022/05/24 02:28:22;;;;;;;;;;;;;;;15.38;84.78;95409.53;5055527;28;19969;-77
2022/05/24 02:30:50;;;;;;;;;;;;;;;15.37;84.63;95403.47;5057093;28;20411;-77
2022/05/24 02:33:16;;;;;;;;;;;;;;;15.35;85.16;95402.97;5056949;28;19960;-77
2022/05/24 02:35:41;;;;;;;;;;;;;;;15.34;84.57;95409.28;5057111;28;19953;-78
2022/05/24 02:38:08;;;;;;;;;;;;;;;15.33;84.97;95413.00;5055864;28;19984;-78
2022/05/24 02:43:18;;;;;;;;;;;;;;;15.29;85.06;95401.41;5057131;28;19951;-78
2022/05/24 02:45:44;;;;;;;;;;;;;;;15.23;85.24;95395.34;5056874;28;19955;-78
2022/05/24 02:48:10;;;;;;;;;;;;;;;15.20;85.49;95388.00;5055939;28;19961;-78
2022/05/24 02:50:35;;;;;;;;;;;;;;;15.21;85.45;95391.41;5056761;28;19968;-77
2022/05/24 02:53:01;;;;;;;;;;;;;;;15.20;84.92;95401.19;5056772;28;20417;-77
2022/05/24 02:55:27;;;;;;;;;;;;;;;15.18;84.83;95395.41;5056671;28;19965;-78
2022/05/24 02:57:53;;;;;;;;;;;;;;;15.20;85.17;95405.66;5056496;28;20040;-79
2022/05/24 03:00:22;;;;;;;;;;;;;;;15.18;85.32;95405.97;5056881;28;20003;-79
2022/05/24 03:02:49;;;;;;;;;;;;;;;15.18;85.15;95408.59;5056779;28;19951;-78
2022/05/24 03:05:15;;;;;;;;;;;;;;;15.18;85.03;95419.16;5055502;28;19960;-79
2022/05/24 03:10:27;;;;;;;;;;;;;;;15.16;85.74;95423.13;5056386;28;19977;-79
2022/05/24 03:15:39;;;;;;;;;;;;;;;15.17;85.85;95425.50;5056519;28;19967;-78
2022/05/24 03:18:06;;;;;;;;;;;;;;;15.17;86.08;95425.50;5038156;28;20358;-77
2022/05/24 03:20:32;;;;;;;;;;;;;;;15.17;85.92;95428.13;5056240;28;19955;-79
2022/05/24 03:22:58;;;;;;;;;;;;;;;15.17;85.95;95420.22;5056797;28;19993;-78
2022/05/24 03:25:23;;;;;;;;;;;;;;;15.18;86.22;95435.00;5056158;28;19962;-77
2022/05/24 03:27:49;;;;;;;;;;;;;;;15.17;86.03;95435.28;5056065;28;20006;-77
2022/05/24 03:30:15;;;;;;;;;;;;;;;15.17;86.21;95443.97;5055961;28;20020;-77
2022/05/24 03:32:41;;;;;;;;;;;;;;;15.17;86.21;95435.28;5056238;28;19967;-78
2022/05/24 03:35:11;;;;;;;;;;;;;;;15.16;86.18;95423.94;5055959;28;19948;-77
2022/05/24 03:37:38;;;;;;;;;;;;;;;15.15;86.08;95414.41;5055962;28;19965;-77
2022/05/24 03:40:04;;;;;;;;;;;;;;;15.12;86.17;95412.31;5056086;28;19962;-77
2022/05/24 03:42:30;;;;;;;;;;;;;;;15.08;86.10;95421.06;5055812;28;19955;-77
2022/05/24 03:44:56;;;;;;;;;;;;;;;15.06;86.51;95420.56;5055906;28;19964;-77
2022/05/24 03:47:22;;;;;;;;;;;;;;;15.06;86.24;95428.47;5055725;28;19952;-77
2022/05/24 03:49:48;;;;;;;;;;;;;;;15.06;86.59;95436.38;5055637;28;19954;-77
2022/05/24 03:52:14;;;;;;;;;;;;;;;15.05;86.60;95434.78;5056029;28;19975;-77
2022/05/24 03:54:39;;;;;;;;;;;;;;;15.05;86.62;95427.66;5055692;28;19964;-78
2022/05/24 03:59:51;;;;;;;;;;;;;;;15.03;86.97;95424.50;5055498;28;19968;-78
2022/05/24 04:02:17;;;;;;;;;;;;;;;15.02;86.60;95415.00;5055559;28;19962;-78
2022/05/24 04:04:42;;;;;;;;;;;;;;;15.02;86.76;95407.88;5055498;28;20392;-78
2022/05/24 04:07:08;;;;;;;;;;;;;;;15.00;86.89;95414.50;5055527;28;19962;-78
2022/05/24 04:09:34;;;;;;;;;;;;;;;14.99;86.39;95434.84;5055297;28;20440;-77
2022/05/24 04:12:00;;;;;;;;;;;;;;;14.98;86.00;95458.84;5055187;28;19985;-77
2022/05/24 04:14:30;;;;;;;;;;;;;;;14.96;86.63;95469.69;5055081;28;19972;-77
2022/05/24 04:16:56;;;;;;;;;;;;;;;14.96;86.67;95461.75;5055242;28;19954;-77
2022/05/24 04:19:22;;;;;;;;;;;;;;;14.99;86.59;95455.13;5054963;28;20001;-78
2022/05/24 04:21:48;;;;;;;;;;;;;;;14.99;86.71;95450.66;5053911;28;19958;-78
2022/05/24 04:24:14;;;;;;;;;;;;;;;15.02;86.36;95451.97;5055343;28;20342;-78
2022/05/24 04:26:40;;;;;;;;;;;;;;;15.04;86.69;95449.84;5054947;28;19966;-79
2022/05/24 04:29:06;;;;;;;;;;;;;;;15.05;85.44;95453.28;5055014;28;19959;-78
2022/05/24 04:31:32;;;;;;;;;;;;;;;14.97;84.28;95450.16;5036999;28;20053;-79
2022/05/24 04:33:58;;;;;;;;;;;;;;;14.93;84.95;95464.94;5055119;28;19956;-79
2022/05/24 04:36:24;;;;;;;;;;;;;;;14.92;85.41;95467.84;5055179;28;19963;-78
2022/05/24 04:38:50;;;;;;;;;;;;;;;14.93;85.86;95464.13;5054262;28;19971;-78
2022/05/24 04:44:01;;;;;;;;;;;;;;;14.98;86.24;95485.25;5055096;28;20426;-78
2022/05/24 04:47:07;;;;;;;;;;;;;;;15.00;86.45;95485.78;5054893;28;20004;-77
2022/05/24 04:49:12;;;;;;;;;;;;;;;15.01;86.07;95493.44;5054803;28;19958;-77
2022/05/24 04:51:38;;;;;;;;;;;;;;;15.04;86.09;95484.19;5053838;28;19951;-78
2022/05/24 04:54:04;;;;;;;;;;;;;;;15.08;86.10;95487.88;5054574;28;20375;-77
2022/05/24 04:56:30;;;;;;;;;;;;;;;15.12;86.01;95482.81;5054193;28;19987;-78
2022/05/24 04:58:56;;;;;;;;;;;;;;;15.15;85.56;95485.72;5054164;28;19975;-76
2022/05/24 05:01:22;;;;;;;;;;;;;;;15.17;84.47;95474.88;5054286;28;20314;-77
2022/05/24 05:03:48;;;;;;;;;;;;;;;15.07;84.68;95467.00;5054224;28;19990;-77
2022/05/24 05:06:14;;;;;;;;;;;;;;;14.98;84.85;95480.75;5054233;28;20083;-78
2022/05/24 05:08:39;;;;;;;;;;;;;;;14.95;85.09;95497.16;5054091;28;19955;-77
2022/05/24 05:11:05;;;;;;;;;;;;;;;14.93;84.88;95486.06;5054026;28;20030;-79
2022/05/24 05:13:31;;;;;;;;;;;;;;;14.95;84.97;95496.34;5054120;28;19960;-76
2022/05/24 05:15:57;;;;;;;;;;;;;;;14.99;84.40;95506.13;5054111;28;19954;-78
2022/05/24 05:18:24;;;;;;;;;;;;;;;15.05;84.28;95500.81;5053918;28;19974;-79
2022/05/24 05:20:50;;;;;;;;;;;;;;;15.13;84.82;95501.03;5053922;28;19979;-78
2022/05/24 05:23:17;;;;;;;;;;;;;;;15.27;84.51;95503.13;5054686;28;19971;-77
2022/05/24 05:25:43;;;;;;;;;;;;;;;15.43;84.34;95512.53;5054243;28;19956;-78
2022/05/24 05:28:09;;;;;;;;;;;;;;;15.56;84.37;95513.78;5019357;28;19956;-79
2022/05/24 05:33:20;;;;;;;;;;;;;;;15.71;83.65;95505.00;5054046;28;19960;-79
2022/05/24 05:35:46;;;;;;;;;;;;;;;15.76;83.60;95515.56;5053668;28;19994;-77
2022/05/24 05:38:13;;;;;;;;;;;;;;;15.80;83.78;95514.75;5054191;28;19984;-77
2022/05/24 05:40:41;;;;;;;;;;;;;;;16.10;82.59;95501.59;5053396;28;19969;-77
2022/05/24 05:43:07;;;;;;;;;;;;;;;16.36;80.00;95502.22;5053583;28;19968;-78
2022/05/24 05:45:34;;;;;;;;;;;;;;;16.58;79.06;95504.38;5053845;28;20047;-77
2022/05/24 05:47:59;;;;;;;;;;;;;;;16.72;77.39;95507.19;5035953;28;19961;-78
2022/05/24 05:50:25;;;;;;;;;;;;;;;16.74;77.58;95515.63;5053508;28;20436;-77
2022/05/24 05:52:51;;;;;;;;;;;;;;;16.73;77.03;95514.03;5053478;28;19978;-78
2022/05/24 05:55:19;;;;;;;;;;;;;;;16.59;77.24;95517.34;5053620;28;19957;-77
2022/05/24 05:57:45;;;;;;;;;;;;;;;16.49;77.30;95517.44;5053854;28;19966;-77
2022/05/24 06:00:12;;;;;;;;;;;;;;;16.40;77.53;95519.91;5053418;28;19953;-78
2022/05/24 06:02:38;;;;;;;;;;;;;;;16.32;77.38;95531.06;5053093;28;19965;-77
2022/05/24 06:05:04;;;;;;;;;;;;;;;16.28;76.86;95530.03;5053444;28;19961;-77
2022/05/24 06:07:30;;;;;;;;;;;;;;;16.26;77.38;95524.25;5035504;28;19949;-77
2022/05/24 06:09:56;;;;;;;;;;;;;;;16.25;77.06;95522.66;5053414;28;19957;-77
2022/05/24 06:12:22;;;;;;;;;;;;;;;16.32;76.60;95517.84;5053284;28;19985;-77
2022/05/24 06:14:48;;;;;;;;;;;;;;;16.36;76.82;95529.47;5053104;28;19965;-77
2022/05/24 06:17:14;;;;;;;;;;;;;;;16.40;76.27;95535.00;5053365;28;19969;-77
2022/05/24 06:19:40;;;;;;;;;;;;;;;16.44;76.60;95531.50;5053238;28;20356;-77
2022/05/24 06:22:06;;;;;;;;;;;;;;;16.44;74.69;95528.88;5053184;28;19955;-77
2022/05/24 06:24:32;;;;;;;;;;;;;;;16.44;74.90;95528.06;5053476;28;19949;-77
2022/05/24 06:26:58;;;;;;;;;;;;;;;16.41;75.19;95533.91;5053357;28;19958;-78
2022/05/24 06:29:24;;;;;;;;;;;;;;;16.41;74.83;95536.56;5052953;28;19960;-78
2022/05/24 06:31:50;;;;;;;;;;;;;;;16.44;75.56;95551.88;5052545;28;19963;-79
2022/05/24 06:34:16;;;;;;;;;;;;;;;16.45;74.22;95545.53;5034414;28;19976;-79
2022/05/24 06:36:42;;;;;;;;;;;;;;;16.43;74.11;95548.44;5053763;28;19955;-78
2022/05/24 06:39:08;;;;;;;;;;;;;;;16.35;73.49;95545.59;5053045;28;19974;-78
2022/05/24 06:41:34;;;;;;;;;;;;;;;16.30;73.90;95540.34;5053060;28;20352;-79
2022/05/24 06:43:59;;;;;;;;;;;;;;;16.24;74.30;95558.91;5035257;28;20012;-78
2022/05/24 06:46:26;;;;;;;;;;;;;;;16.19;73.56;95545.72;5052957;28;20397;-78
2022/05/24 06:48:52;;;;;;;;;;;;;;;16.19;74.91;95560.78;5053114;28;19962;-78
2022/05/24 06:51:18;;;;;;;;;;;;;;;16.18;74.76;95564.50;5052860;28;20008;-78
2022/05/24 06:53:45;;;;;;;;;;;;;;;16.18;75.57;95569.78;5053453;28;20425;-78
2022/05/24 06:56:11;;;;;;;;;;;;;;;16.16;75.08;95575.34;5053015;28;19951;-79
2022/05/24 06:58:37;;;;;;;;;;;;;;;16.14;75.32;95595.22;5052957;28;19969;-78
2022/05/24 07:03:49;;;;;;;;;;;;;;;15.91;77.13;95655.59;5052975;28;19958;-78
2022/05/24 07:06:15;;;;;;;;;;;;;;;15.65;79.99;95643.53;5052927;28;19960;-77
2022/05/24 07:08:42;;;;;;;;;;;;;;;15.25;76.53;95650.50;5052797;28;19982;-78
2022/05/24 07:11:09;;;;;;;;;;;;;;;14.76;76.81;95662.38;5051256;28;20304;-79
2022/05/24 07:13:35;;;;;;;;;;;;;;;14.46;76.87;95663.91;5053301;28;19960;-80
2022/05/24 07:16:00;;;;;;;;;;;;;;;14.20;76.43;95666.50;5056565;28;19982;-80
2022/05/24 07:18:26;;;;;;;;;;;;;;;14.01;77.93;95674.09;5056283;28;19969;-81
2022/05/24 07:20:53;;;;;;;;;;;;;;;13.86;78.77;95684.56;5056667;28;20041;-81
2022/05/24 07:23:20;;;;;;;;;;;;;;;13.74;77.22;95676.09;5056345;28;19953;-81
2022/05/24 07:25:46;;;;;;;;;;;;;;;13.64;80.36;95694.47;5056458;28;19953;-81
2022/05/24 07:28:15;;;;;;;;;;;;;;;13.60;80.78;95696.81;5056159;28;20314;-82
2022/05/24 07:30:42;;;;;;;;;;;;;;;13.61;80.96;95706.31;5055989;28;19964;-81
2022/05/24 07:33:08;;;;;;;;;;;;;;;13.62;81.03;95707.88;5056269;28;19954;-81
2022/05/24 07:35:37;;;;;;;;;;;;;;;13.68;80.71;95722.69;5048421;28;19965;-82
2022/05/24 07:38:08;;;;;;;;;;;;;;;13.67;81.18;95718.47;5054688;28;19967;-82
2022/05/24 07:46:06;;;;;;;;;;;;;;;13.85;80.11;95732.25;5038402;28;19984;-82
2022/05/24 07:48:34;;;;;;;;;;;;;;;13.90;80.69;95732.28;5055903;28;19955;-82
2022/05/24 07:51:00;;;;;;;;;;;;;;;13.99;79.07;95734.19;5037873;28;19954;-81
2022/05/24 07:53:26;;;;;;;;;;;;;;;14.11;80.27;95735.81;5054677;28;19964;-82
2022/05/24 07:55:56;;;;;;;;;;;;;;;14.23;80.85;95743.50;5055637;28;19958;-82
2022/05/24 07:58:23;;;;;;;;;;;;;;;14.36;79.64;95741.19;5055732;28;20431;-82
2022/05/24 08:00:49;;;;;;;;;;;;;;;14.50;78.38;95740.69;5055649;28;19961;-82
2022/05/24 08:03:15;;;;;;;;;;;;;;;14.54;78.03;95742.56;5055602;28;20033;-82
2022/05/24 08:05:41;;;;;;;;;;;;;;;14.52;76.05;95735.97;5055381;28;19982;-81
2022/05/24 08:08:08;;;;;;;;;;;;;;;14.53;77.30;95737.53;5055526;28;19961;-81
2022/05/24 08:10:37;;;;;;;;;;;;;;;14.58;76.48;95748.94;5037060;28;19964;-80
2022/05/24 08:13:07;;;;;;;;;;;;;;;14.64;76.92;95741.03;5055089;28;20401;-81
2022/05/24 08:15:33;;;;;;;;;;;;;;;14.69;74.94;95726.00;5054502;28;19970;-82
2022/05/24 08:17:59;;;;;;;;;;;;;;;14.82;74.96;95727.31;5055143;28;19962;-81
2022/05/24 08:20:26;;;;;;;;;;;;;;;14.91;76.30;95728.41;5037789;28;19958;-81
2022/05/24 08:22:52;;;;;;;;;;;;;;;15.01;74.08;95724.97;5037823;28;19961;-81
2022/05/24 08:25:19;;;;;;;;;;;;;;;15.05;73.39;95749.78;5053835;28;19960;-81
2022/05/24 08:27:44;;;;;;;;;;;;;;;15.01;72.06;95744.25;5055087;28;19965;-82
2022/05/24 08:30:12;;;;;;;;;;;;;;;15.02;73.25;95752.97;5054973;28;19963;-81
2022/05/24 08:32:39;;;;;;;;;;;;;;;15.06;73.35;95758.53;5054891;28;19962;-81
2022/05/24 08:35:05;;;;;;;;;;;;;;;15.09;72.89;95752.72;5054288;28;20361;-81
2022/05/24 08:37:31;;;;;;;;;;;;;;;15.11;73.67;95759.31;5054781;28;19974;-82
2022/05/24 08:39:59;;;;;;;;;;;;;;;15.14;71.30;95748.22;5054695;28;20430;-82
2022/05/24 08:42:27;;;;;;;;;;;;;;;15.15;70.78;95752.44;5054776;28;19960;-81
2022/05/24 08:50:42;;;;;;;;;;;;;;;15.49;71.02;95762.47;5043221;28;19953;-81
2022/05/24 08:53:10;;;;;;;;;;;;;;;15.60;69.68;95758.78;5054591;28;19951;-81
2022/05/24 08:55:37;;;;;;;;;;;;;;;15.80;70.86;95773.81;5054559;28;20407;-81
2022/05/24 08:58:08;;;;;;;;;;;;;;;16.22;68.55;95748.84;5054572;28;19953;-81
2022/05/24 09:00:39;;;;;;;;;;;;;;;16.50;62.88;95693.69;5055011;28;19967;-80
2022/05/24 09:03:06;;;;;;;;;;;;;;;16.77;67.85;95756.78;5054328;28;19955;-80
2022/05/24 09:05:35;;;;;;;;;;;;;;;16.82;65.17;95738.28;5036743;28;20331;-80
2022/05/24 09:08:01;;;;;;;;;;;;;;;16.86;65.33;95743.00;5036413;28;19954;-80
2022/05/24 09:10:33;;;;;;;;;;;;;;;16.78;65.45;95753.09;5054801;28;20307;-80
2022/05/24 09:13:08;;;;;;;;;;;;;;;16.69;60.71;95695.69;5054315;28;19971;-80
2022/05/24 09:15:33;;;;;;;;;;;;;;;16.70;63.06;95744.94;5054277;28;19971;-79
2022/05/24 09:18:06;;;;;;;;;;;;;;;16.89;61.95;95726.56;5054173;28;19957;-80
2022/05/24 09:20:34;;;;;;;;;;;;;;;16.97;63.36;95741.88;5054110;28;19955;-80
2022/05/24 09:23:14;;;;;;;;;;;;;;;16.98;63.03;95760.13;5054271;28;19954;-79
2022/05/24 09:25:56;;;;;;;;;;;;;;;17.03;60.37;95715.06;5054091;28;19960;-79
2022/05/24 09:28:41;;;;;;;;;;;;;;;17.23;61.69;95748.56;5053913;28;19961;-80
2022/05/24 09:31:18;;;;;;;;;;;;;;;17.41;62.12;95749.75;5054030;28;20026;-80
2022/05/24 09:33:44;;;;;;;;;;;;;;;17.30;60.64;95734.19;5054522;28;19966;-79
2022/05/24 09:36:23;;;;;;;;;;;;;;;17.19;59.87;95733.50;5053775;28;19956;-79
2022/05/24 09:38:49;;;;;;;;;;;;;;;17.11;60.70;95750.78;5053930;28;19969;-78
2022/05/24 09:41:17;;;;;;;;;;;;;;;17.12;60.60;95736.47;5053757;28;20407;-79
2022/05/24 09:43:57;;;;;;;;;;;;;;;17.10;61.92;95756.38;5036257;28;19958;-79
2022/05/24 09:46:24;;;;;;;;;;;;;;;16.97;59.79;95741.88;5054128;28;19959;-78
2022/05/24 09:48:53;;;;;;;;;;;;;;;16.80;60.29;95748.34;5053589;28;19959;-79
2022/05/24 09:51:24;;;;;;;;;;;;;;;16.70;60.25;95742.28;5053867;28;19963;-79
2022/05/24 09:53:51;;;;;;;;;;;;;;;16.98;61.61;95773.38;5053162;28;19951;-79
2022/05/24 09:56:20;;;;;;;;;;;;;;;17.07;59.31;95733.84;5053868;28;20025;-79
2022/05/24 09:58:56;;;;;;;;;;;;;;;16.99;59.08;95735.25;5053920;28;20335;-78
2022/05/24 10:01:30;;;;;;;;;;;;;;;17.09;57.95;95736.22;5035773;28;19960;-79
2022/05/24 10:04:09;;;;;;;;;;;;;;;17.29;58.74;95745.88;5053683;28;20419;-79
2022/05/24 10:06:35;;;;;;;;;;;;;;;17.50;58.08;95726.06;5053747;28;19965;-79
2022/05/24 10:09:11;;;;;;;;;;;;;;;17.70;54.56;95703.91;5053300;28;19976;-79
2022/05/24 10:11:38;;;;;;;;;;;;;;;17.93;56.70;95714.81;5053378;28;20342;-79
2022/05/24 10:14:22;;;;;;;;;;;;;;;18.01;56.76;95728.22;5053262;28;19962;-79
2022/05/24 10:16:56;;;;;;;;;;;;;;;18.12;55.79;95710.34;5053375;28;19957;-79
2022/05/24 10:19:32;;;;;;;;;;;;;;;18.26;51.19;95654.69;5053176;28;19973;-78
2022/05/24 10:22:02;;;;;;;;;;;;;;;18.51;52.60;95666.84;5053595;28;19955;-79
2022/05/24 10:24:48;;;;;;;;;;;;;;;18.79;52.22;95659.81;5053407;28;19959;-79
2022/05/24 10:27:20;;;;;;;;;;;;;;;19.00;53.00;95670.91;5006713;28;19954;-79
2022/05/24 10:29:49;;;;;;;;;;;;;;;19.09;52.55;95671.03;5053370;28;19952;-79
2022/05/24 10:38:20;;;;;;;;;;;;;;;19.43;48.32;95622.84;4972547;28;19950;-79
2022/05/24 10:40:59;;;;;;;;;;;;;;;19.43;45.69;95584.84;5026331;28;20322;-78
2022/05/24 10:43:31;;;;;;;;;;;;;;;19.48;50.55;95646.69;5053214;28;20324;-79
2022/05/24 10:46:01;;;;;;;;;;;;;;;19.77;50.25;95661.63;5052181;28;19952;-79
2022/05/24 10:48:31;;;;;;;;;;;;;;;19.93;49.83;95694.03;5053381;28;20410;-79
2022/05/24 10:51:04;;;;;;;;;;;;;;;20.03;50.11;95711.66;5057071;28;19962;-78
2022/05/24 10:53:39;;;;;;;;;;;;;;;20.23;48.59;95681.22;5056921;28;19960;-79
2022/05/24 10:56:08;;;;;;;;;;;;;;;20.48;46.32;95675.34;5056827;28;20436;-79
2022/05/24 10:58:35;;;;;;;;;;;;;;;20.66;42.45;95643.53;5056609;28;19962;-79
2022/05/24 11:01:01;;;;;;;;;;;;;;;20.83;46.49;95704.97;5056816;28;19956;-79
2022/05/24 11:03:30;;;;;;;;;;;;;;;20.78;43.60;95657.09;5056797;28;19953;-79
2022/05/24 11:06:04;;;;;;;;;;;;;;;20.50;44.99;95696.34;5056678;28;19962;-78
2022/05/24 11:08:45;;;;;;;;;;;;;;;20.44;45.57;95710.84;5056735;28;19958;-78
2022/05/24 11:11:13;;;;;;;;;;;;;;;20.48;45.35;95693.19;5056228;28;20327;-78
2022/05/24 11:13:42;;;;;;;;;;;;;;;20.71;45.57;95707.38;5056829;28;19963;-79
2022/05/24 11:16:13;;;;;;;;;;;;;;;20.79;47.81;95722.66;5056391;28;19951;-79
2022/05/24 11:18:40;;;;;;;;;;;;;;;20.83;44.79;95693.50;5056566;28;19970;-78
2022/05/24 11:21:06;;;;;;;;;;;;;;;20.94;45.53;95708.19;5056285;28;19959;-79
2022/05/24 11:23:45;;;;;;;;;;;;;;;21.10;44.49;95751.25;5048834;28;19959;-78
2022/05/24 11:26:32;;;;;;;;;;;;;;;21.29;43.74;95741.22;5038495;28;19953;-79
2022/05/24 11:28:59;;;;;;;;;;;;;;;21.42;44.27;95734.28;5056459;28;19955;-79
2022/05/24 11:31:40;;;;;;;;;;;;;;;21.68;45.68;95752.31;5055594;28;19962;-78
2022/05/24 11:34:10;;;;;;;;;;;;;;;21.88;43.42;95730.44;5055918;28;19960;-79
2022/05/24 11:36:40;;;;;;;;;;;;;;;21.90;40.05;95698.06;5056209;28;19963;-79
2022/05/24 11:39:17;;;;;;;;;;;;;;;21.93;41.21;95718.03;5054985;28;19974;-79
2022/05/24 11:41:43;;;;;;;;;;;;;;;21.94;37.11;95712.38;5056298;28;19958;-79
2022/05/24 11:44:29;;;;;;;;;;;;;;;21.97;39.02;95746.47;5055891;28;19969;-79
2022/05/24 11:46:56;;;;;;;;;;;;;;;22.08;42.00;95763.00;5054583;28;19968;-78
2022/05/24 11:49:22;;;;;;;;;;;;;;;22.21;42.31;95748.75;5055333;28;19971;-78
2022/05/24 11:51:48;;;;;;;;;;;;;;;22.40;41.96;95751.19;5055869;28;20061;-79
2022/05/24 11:54:23;;;;;;;;;;;;;;;22.60;35.85;95733.78;5055812;28;20328;-79
2022/05/24 11:56:52;;;;;;;;;;;;;;;22.65;41.22;95762.25;5053794;28;19956;-79
2022/05/24 11:59:37;;;;;;;;;;;;;;;22.70;40.66;95740.75;5055671;28;20418;-78
2022/05/24 12:02:26;;;;;;;;;;;;;;;22.78;38.05;95731.91;5055774;28;20409;-79
2022/05/24 12:07:56;;;;;;;;;;;;;;;22.33;38.18;95740.19;5034130;28;19959;-79
2022/05/24 12:10:49;;;;;;;;;;;;;;;22.07;40.44;95750.75;5055063;28;20344;-79
2022/05/24 12:13:25;;;;;;;;;;;;;;;21.77;40.47;95757.69;5055730;28;19956;-79
2022/05/24 12:15:53;;;;;;;;;;;;;;;21.55;41.74;95767.28;5055508;28;20435;-78
2022/05/24 12:18:20;;;;;;;;;;;;;;;21.50;43.86;95775.41;5054474;28;19953;-79
2022/05/24 12:20:47;;;;;;;;;;;;;;;21.57;42.48;95778.44;5055107;28;19974;-79
2022/05/24 12:23:14;;;;;;;;;;;;;;;21.43;40.74;95769.72;5055484;28;19961;-78
2022/05/24 12:25:55;;;;;;;;;;;;;;;21.43;44.28;95793.72;5055148;28;19956;-79
2022/05/24 12:28:22;;;;;;;;;;;;;;;21.38;41.68;95767.16;5055041;28;19966;-79
2022/05/24 12:30:49;;;;;;;;;;;;;;;21.28;43.51;95776.19;5055397;28;19962;-78
2022/05/24 12:33:21;;;;;;;;;;;;;;;21.26;42.82;95781.03;5055113;28;19958;-78
2022/05/24 12:35:52;;;;;;;;;;;;;;;21.53;37.74;95750.81;5055464;28;19961;-78
2022/05/24 12:38:20;;;;;;;;;;;;;;;21.56;41.38;95771.53;5054800;28;19951;-79
2022/05/24 12:40:46;;;;;;;;;;;;;;;21.37;41.25;95777.03;5055022;28;19975;-79
2022/05/24 12:43:14;;;;;;;;;;;;;;;21.37;43.07;95793.03;5054745;28;20015;-78
2022/05/24 12:45:41;;;;;;;;;;;;;;;21.31;40.23;95777.44;5054775;28;19955;-78
2022/05/24 12:48:22;;;;;;;;;;;;;;;21.20;41.26;95774.22;5054991;28;19956;-78
2022/05/24 12:50:48;;;;;;;;;;;;;;;21.46;41.41;95766.44;5054585;28;20339;-78
2022/05/24 12:53:20;;;;;;;;;;;;;;;21.55;40.15;95763.84;5054579;28;19954;-78
2022/05/24 12:55:58;;;;;;;;;;;;;;;21.51;39.38;95763.66;5054515;28;19953;-78
2022/05/24 12:58:28;;;;;;;;;;;;;;;21.57;40.58;95773.13;5054876;28;19959;-78
2022/05/24 13:01:06;;;;;;;;;;;;;;;21.50;38.88;95756.72;5054329;28;19976;-78
2022/05/24 13:03:32;;;;;;;;;;;;;;;21.39;40.36;95766.06;5044759;28;20439;-78
2022/05/24 13:05:58;;;;;;;;;;;;;;;21.26;38.98;95752.47;5054232;28;19968;-78
2022/05/24 13:08:25;;;;;;;;;;;;;;;21.12;39.69;95759.75;5055131;28;19953;-78
2022/05/24 13:10:51;;;;;;;;;;;;;;;20.91;39.35;95762.06;5053862;28;20420;-78
2022/05/24 13:13:19;;;;;;;;;;;;;;;20.92;41.42;95781.53;5054134;28;19957;-78
2022/05/24 13:15:49;;;;;;;;;;;;;;;21.01;42.45;95785.06;5054149;28;20326;-78
2022/05/24 13:18:17;;;;;;;;;;;;;;;21.04;41.25;95774.59;5054430;28;19959;-78
2022/05/24 13:20:44;;;;;;;;;;;;;;;20.98;41.08;95773.13;5053946;28;19969;-78
2022/05/24 13:23:13;;;;;;;;;;;;;;;20.86;41.94;95767.53;5054313;28;19953;-78
2022/05/24 13:25:49;;;;;;;;;;;;;;;20.97;39.82;95762.75;5053319;28;19954;-78
2022/05/24 13:28:31;;;;;;;;;;;;;;;21.16;40.74;95765.25;5054230;28;20434;-78
2022/05/24 13:33:44;;;;;;;;;;;;;;;21.54;39.17;95752.38;5053917;28;20023;-78
2022/05/24 13:36:13;;;;;;;;;;;;;;;21.35;40.04;95754.41;5054073;28;20439;-78
2022/05/24 13:38:40;;;;;;;;;;;;;;;21.49;40.39;95753.28;5053817;28;19954;-78
2022/05/24 13:41:07;;;;;;;;;;;;;;;21.66;39.18;95757.16;5053570;28;20169;-79